San Clemente, CA

1:23 AM PDT on July 31, 2016 (GMT -0700)
Presidio Hill Top | | Change Station
Active Advisory: Beach Hazard Statement

Elev 550 ft 33.44 °N, 117.61 °W | Updated 200 days ago

Partly Cloudy
Partly Cloudy
69 °F
Feels Like 69 °F
N
3
Wind Variable Wind from SE
Gusts mph

Today
High -- | Low -- °F
--% Chance of Precip.
Yesterday
High -- | Low -- °F
Precip. -- in
Pressure 30.13 in
Visibility 8.0 miles
Clouds Scattered Clouds 1200 ft
Dew Point 65 °F
Humidity 87%
Rainfall in
Snow Depth Not available.
6:02 AM 7:50 PM
Waning Crescent, 8% visible
METAR KNXF 310756Z AUTO 12003KT 8SM SCT012 22/19 A2988 RMK AO2 SLP201 T02220194 402670194
Pressure 30.13 in
Visibility 8.0 miles
Clouds Scattered Clouds 1200 ft
Dew Point 65 °F
Humidity 87%
Rainfall in
Snow Depth Not available.
6:02 AM 7:50 PM
Waning Crescent, 8% visible
METAR KNXF 310756Z AUTO 12003KT 8SM SCT012 22/19 A2988 RMK AO2 SLP201 T02220194 402670194

10-Day Weather Forecast

Almanac

Astronomy

Jul. 31, 2016 Rise Set
Actual Time
Civil Twilight
Nautical Twilight
Astronomical Twilight
Moon
Length of Visible Light
Length of Day
Tomorrow will be .
, % of the Moon is Illuminated

Today's Extremes

State Highs State Lows

Community

WunderPhotos

Upload Photos

1,928,768 photos uploaded!

WunderBlog® & News

Nearby

Air Quality

  Air Quality AQ Index Pollutant
Not available.

Snow Depth

Station Depth Elevation

Earthquake Activity

City Distance Mag. Time & Date
Minimum magnitude displayed is 2.5.

Coastal Water Temperatures

Place Temperature

Stations

Nearby Weather Stations

Station Location Temp. Windchill Dew Point Humidity Wind Precip. Elev Updated Type
                   

Watches & Warnings

Beach Hazard Statement
Issued: 8:53 PM PDT Jul. 30, 2016 – National Weather Service

... Beach hazards statement remains in effect from 8 am PDT Sunday
through Monday evening...

* waves and surf... 2 to 4 feet early Sunday... increasing to 3 to
5 feet by Sunday evening. Highest surf along south and
southwest facing beaches.

* Highest tides... Sunday 7.0 ft at 8:12 PM PDT. Monday 7.0 ft at
8:55 PM PDT.

* Timing... Sunday morning through Monday evening.

* Impacts... strong rip and longshore currents will create
hazardous swimming conditions. Rip currents may pull swimmers
out to sea.

Precautionary/preparedness actions...

A beach hazards statement is issued when threats such as strong
rip currents... elevated surf heights... minor tidal overflow... or
lightning are possible at local beaches. Obey posted warning
signs and flags and talk to a lifeguard before swimming. Use
caution when in or near the water and always swim near a
lifeguard.